sensor_id;sensor_type;location;lat;lon;timestamp;temperature;humidity
49385;DHT22;36795;45.028;38.968;2023-06-22T00:02:04;23.80;62.10
49385;DHT22;36795;45.028;38.968;2023-06-22T00:04:50;23.80;62.00
49385;DHT22;36795;45.028;38.968;2023-06-22T00:07:36;23.80;62.00
49385;DHT22;36795;45.028;38.968;2023-06-22T00:10:22;23.80;61.90
49385;DHT22;36795;45.028;38.968;2023-06-22T00:13:09;23.80;61.80
49385;DHT22;36795;45.028;38.968;2023-06-22T00:15:55;23.80;61.90
49385;DHT22;36795;45.028;38.968;2023-06-22T00:18:41;23.70;61.80
49385;DHT22;36795;45.028;38.968;2023-06-22T00:21:33;23.70;61.80
49385;DHT22;36795;45.028;38.968;2023-06-22T00:24:20;23.70;61.90
49385;DHT22;36795;45.028;38.968;2023-06-22T00:27:06;23.60;61.80
49385;DHT22;36795;45.028;38.968;2023-06-22T00:29:52;23.60;61.90
49385;DHT22;36795;45.028;38.968;2023-06-22T00:32:40;23.60;62.00
49385;DHT22;36795;45.028;38.968;2023-06-22T00:35:26;23.50;62.00
49385;DHT22;36795;45.028;38.968;2023-06-22T00:38:16;23.50;62.00
49385;DHT22;36795;45.028;38.968;2023-06-22T00:41:01;23.50;61.90
49385;DHT22;36795;45.028;38.968;2023-06-22T00:43:48;23.40;61.80
49385;DHT22;36795;45.028;38.968;2023-06-22T00:46:33;23.40;61.80
49385;DHT22;36795;45.028;38.968;2023-06-22T00:49:20;23.40;61.70
49385;DHT22;36795;45.028;38.968;2023-06-22T00:52:07;23.40;61.70
49385;DHT22;36795;45.028;38.968;2023-06-22T00:54:56;23.30;61.80
49385;DHT22;36795;45.028;38.968;2023-06-22T00:57:42;23.30;61.80
49385;DHT22;36795;45.028;38.968;2023-06-22T01:00:29;23.30;61.70
49385;DHT22;36795;45.028;38.968;2023-06-22T01:03:15;23.30;61.70
49385;DHT22;36795;45.028;38.968;2023-06-22T01:06:07;23.30;61.50
49385;DHT22;36795;45.028;38.968;2023-06-22T01:09:02;23.30;61.50
49385;DHT22;36795;45.028;38.968;2023-06-22T01:11:59;23.30;61.50
49385;DHT22;36795;45.028;38.968;2023-06-22T01:18:09;23.30;61.90
49385;DHT22;36795;45.028;38.968;2023-06-22T01:20:56;23.30;61.30
49385;DHT22;36795;45.028;38.968;2023-06-22T01:30:14;23.30;61.20
49385;DHT22;36795;45.028;38.968;2023-06-22T01:33:03;23.20;61.30
49385;DHT22;36795;45.028;38.968;2023-06-22T01:35:50;23.20;61.30
49385;DHT22;36795;45.028;38.968;2023-06-22T01:38:37;23.20;61.30
49385;DHT22;36795;45.028;38.968;2023-06-22T01:41:26;23.10;61.30
49385;DHT22;36795;45.028;38.968;2023-06-22T01:44:13;23.20;61.30
49385;DHT22;36795;45.028;38.968;2023-06-22T01:47:01;23.10;61.20
49385;DHT22;36795;45.028;38.968;2023-06-22T01:49:47;23.20;61.30
49385;DHT22;36795;45.028;38.968;2023-06-22T01:52:33;23.20;61.30
49385;DHT22;36795;45.028;38.968;2023-06-22T01:55:19;23.20;61.30
49385;DHT22;36795;45.028;38.968;2023-06-22T01:58:08;23.10;61.30
49385;DHT22;36795;45.028;38.968;2023-06-22T02:01:00;23.10;61.40
49385;DHT22;36795;45.028;38.968;2023-06-22T02:04:07;23.20;61.50
49385;DHT22;36795;45.028;38.968;2023-06-22T02:06:59;23.20;61.60
49385;DHT22;36795;45.028;38.968;2023-06-22T02:09:49;23.20;61.70
49385;DHT22;36795;45.028;38.968;2023-06-22T02:12:37;23.20;61.70
49385;DHT22;36795;45.028;38.968;2023-06-22T02:15:25;23.30;62.10
49385;DHT22;36795;45.028;38.968;2023-06-22T02:18:13;23.30;62.30
49385;DHT22;36795;45.028;38.968;2023-06-22T02:20:59;23.30;62.70
49385;DHT22;36795;45.028;38.968;2023-06-22T02:23:45;23.40;62.70
49385;DHT22;36795;45.028;38.968;2023-06-22T02:26:32;23.50;62.70
49385;DHT22;36795;45.028;38.968;2023-06-22T02:29:20;23.50;62.50
49385;DHT22;36795;45.028;38.968;2023-06-22T02:32:05;23.60;62.50
49385;DHT22;36795;45.028;38.968;2023-06-22T02:34:53;23.60;62.60
49385;DHT22;36795;45.028;38.968;2023-06-22T02:37:39;23.60;62.30
49385;DHT22;36795;45.028;38.968;2023-06-22T02:40:27;23.70;62.30
49385;DHT22;36795;45.028;38.968;2023-06-22T02:43:15;23.60;62.30
49385;DHT22;36795;45.028;38.968;2023-06-22T02:46:03;23.70;62.40
49385;DHT22;36795;45.028;38.968;2023-06-22T02:48:48;23.70;62.40
49385;DHT22;36795;45.028;38.968;2023-06-22T02:51:35;23.70;62.50
49385;DHT22;36795;45.028;38.968;2023-06-22T02:54:21;23.60;62.60
49385;DHT22;36795;45.028;38.968;2023-06-22T02:57:08;23.70;62.60
49385;DHT22;36795;45.028;38.968;2023-06-22T02:59:59;23.70;62.50
49385;DHT22;36795;45.028;38.968;2023-06-22T03:02:49;23.70;62.60
49385;DHT22;36795;45.028;38.968;2023-06-22T03:05:35;23.70;62.70
49385;DHT22;36795;45.028;38.968;2023-06-22T03:08:21;23.70;62.70
49385;DHT22;36795;45.028;38.968;2023-06-22T03:11:07;23.80;62.80
49385;DHT22;36795;45.028;38.968;2023-06-22T03:13:54;23.80;62.80
49385;DHT22;36795;45.028;38.968;2023-06-22T03:16:40;23.80;62.80
49385;DHT22;36795;45.028;38.968;2023-06-22T03:19:26;23.90;62.70
49385;DHT22;36795;45.028;38.968;2023-06-22T03:22:14;24.00;62.50
49385;DHT22;36795;45.028;38.968;2023-06-22T03:25:00;24.00;62.40
49385;DHT22;36795;45.028;38.968;2023-06-22T03:27:47;24.10;62.10
49385;DHT22;36795;45.028;38.968;2023-06-22T03:30:34;23.90;62.30
49385;DHT22;36795;45.028;38.968;2023-06-22T03:33:27;23.80;63.30
49385;DHT22;36795;45.028;38.968;2023-06-22T03:36:25;23.70;62.90
49385;DHT22;36795;45.028;38.968;2023-06-22T03:39:12;23.70;63.20
49385;DHT22;36795;45.028;38.968;2023-06-22T03:41:59;23.70;62.90
49385;DHT22;36795;45.028;38.968;2023-06-22T03:44:46;23.90;62.60
49385;DHT22;36795;45.028;38.968;2023-06-22T03:47:33;23.90;62.40
49385;DHT22;36795;45.028;38.968;2023-06-22T03:50:19;24.00;62.30
49385;DHT22;36795;45.028;38.968;2023-06-22T03:53:06;24.00;62.20
49385;DHT22;36795;45.028;38.968;2023-06-22T03:55:53;24.10;62.00
49385;DHT22;36795;45.028;38.968;2023-06-22T03:58:39;24.30;61.80
49385;DHT22;36795;45.028;38.968;2023-06-22T04:01:28;24.30;61.50
49385;DHT22;36795;45.028;38.968;2023-06-22T04:04:14;24.40;61.40
49385;DHT22;36795;45.028;38.968;2023-06-22T04:07:00;24.40;61.30
49385;DHT22;36795;45.028;38.968;2023-06-22T04:09:47;24.50;61.30
49385;DHT22;36795;45.028;38.968;2023-06-22T04:12:34;24.50;61.50
49385;DHT22;36795;45.028;38.968;2023-06-22T04:15:20;24.50;61.30
49385;DHT22;36795;45.028;38.968;2023-06-22T04:18:06;24.70;61.00
49385;DHT22;36795;45.028;38.968;2023-06-22T04:20:52;24.80;60.90
49385;DHT22;36795;45.028;38.968;2023-06-22T04:23:38;24.90;60.60
49385;DHT22;36795;45.028;38.968;2023-06-22T04:26:24;24.90;60.20
49385;DHT22;36795;45.028;38.968;2023-06-22T04:29:10;24.80;60.50
49385;DHT22;36795;45.028;38.968;2023-06-22T04:31:57;24.60;60.80
49385;DHT22;36795;45.028;38.968;2023-06-22T04:34:44;24.70;60.90
49385;DHT22;36795;45.028;38.968;2023-06-22T04:37:30;24.70;60.80
49385;DHT22;36795;45.028;38.968;2023-06-22T04:40:16;24.80;60.70
49385;DHT22;36795;45.028;38.968;2023-06-22T04:43:02;24.90;60.50
49385;DHT22;36795;45.028;38.968;2023-06-22T04:45:48;25.00;60.20
49385;DHT22;36795;45.028;38.968;2023-06-22T04:48:38;25.20;59.90
49385;DHT22;36795;45.028;38.968;2023-06-22T04:51:24;25.20;59.90
49385;DHT22;36795;45.028;38.968;2023-06-22T04:54:16;25.20;59.80
49385;DHT22;36795;45.028;38.968;2023-06-22T04:57:04;25.30;59.90
49385;DHT22;36795;45.028;38.968;2023-06-22T04:59:51;25.40;59.60
49385;DHT22;36795;45.028;38.968;2023-06-22T05:02:40;25.40;59.50
49385;DHT22;36795;45.028;38.968;2023-06-22T05:05:26;25.30;59.30
49385;DHT22;36795;45.028;38.968;2023-06-22T05:08:13;25.30;59.60
49385;DHT22;36795;45.028;38.968;2023-06-22T05:10:59;25.40;59.70
49385;DHT22;36795;45.028;38.968;2023-06-22T05:13:45;25.50;59.50
49385;DHT22;36795;45.028;38.968;2023-06-22T05:16:32;25.70;59.30
49385;DHT22;36795;45.028;38.968;2023-06-22T05:19:18;25.90;58.90
49385;DHT22;36795;45.028;38.968;2023-06-22T05:22:04;25.90;58.60
49385;DHT22;36795;45.028;38.968;2023-06-22T05:24:52;26.00;58.40
49385;DHT22;36795;45.028;38.968;2023-06-22T05:27:38;26.00;58.20
49385;DHT22;36795;45.028;38.968;2023-06-22T05:30:25;26.10;58.20
49385;DHT22;36795;45.028;38.968;2023-06-22T05:33:15;26.20;58.30
49385;DHT22;36795;45.028;38.968;2023-06-22T05:36:06;26.20;58.10
49385;DHT22;36795;45.028;38.968;2023-06-22T05:39:13;26.30;58.30
49385;DHT22;36795;45.028;38.968;2023-06-22T05:41:59;26.40;58.20
49385;DHT22;36795;45.028;38.968;2023-06-22T05:44:46;26.50;57.80
49385;DHT22;36795;45.028;38.968;2023-06-22T05:47:32;26.50;57.80
49385;DHT22;36795;45.028;38.968;2023-06-22T05:50:19;26.60;57.70
49385;DHT22;36795;45.028;38.968;2023-06-22T05:53:05;26.60;57.60
49385;DHT22;36795;45.028;38.968;2023-06-22T05:55:53;26.60;57.80
49385;DHT22;36795;45.028;38.968;2023-06-22T05:58:38;26.60;57.90
49385;DHT22;36795;45.028;38.968;2023-06-22T06:01:25;26.80;57.90
49385;DHT22;36795;45.028;38.968;2023-06-22T06:04:12;26.90;57.50
49385;DHT22;36795;45.028;38.968;2023-06-22T06:06:57;27.10;57.30
49385;DHT22;36795;45.028;38.968;2023-06-22T06:09:43;27.30;56.90
49385;DHT22;36795;45.028;38.968;2023-06-22T06:12:30;27.20;56.80
49385;DHT22;36795;45.028;38.968;2023-06-22T06:15:16;27.30;56.80
49385;DHT22;36795;45.028;38.968;2023-06-22T06:18:03;27.20;56.60
49385;DHT22;36795;45.028;38.968;2023-06-22T06:20:51;27.10;57.30
49385;DHT22;36795;45.028;38.968;2023-06-22T06:23:37;27.20;56.40
49385;DHT22;36795;45.028;38.968;2023-06-22T06:26:23;27.20;56.70
49385;DHT22;36795;45.028;38.968;2023-06-22T06:29:13;27.40;56.70
49385;DHT22;36795;45.028;38.968;2023-06-22T06:32:02;27.70;56.30
49385;DHT22;36795;45.028;38.968;2023-06-22T06:34:48;27.90;55.50
49385;DHT22;36795;45.028;38.968;2023-06-22T06:37:39;28.00;55.10
49385;DHT22;36795;45.028;38.968;2023-06-22T06:40:25;28.10;55.10
49385;DHT22;36795;45.028;38.968;2023-06-22T06:43:11;28.00;55.00
49385;DHT22;36795;45.028;38.968;2023-06-22T06:45:58;27.90;55.40
49385;DHT22;36795;45.028;38.968;2023-06-22T06:48:44;28.10;55.10
49385;DHT22;36795;45.028;38.968;2023-06-22T06:51:30;28.20;54.50
49385;DHT22;36795;45.028;38.968;2023-06-22T06:54:16;28.30;54.60
49385;DHT22;36795;45.028;38.968;2023-06-22T06:57:03;28.30;54.60
49385;DHT22;36795;45.028;38.968;2023-06-22T06:59:49;28.40;54.60
49385;DHT22;36795;45.028;38.968;2023-06-22T07:02:35;28.40;54.60
49385;DHT22;36795;45.028;38.968;2023-06-22T07:05:22;28.40;54.60
49385;DHT22;36795;45.028;38.968;2023-06-22T07:08:08;28.30;54.50
49385;DHT22;36795;45.028;38.968;2023-06-22T07:11:02;28.40;54.80
49385;DHT22;36795;45.028;38.968;2023-06-22T07:13:49;28.40;54.80
49385;DHT22;36795;45.028;38.968;2023-06-22T07:16:36;28.40;54.70
49385;DHT22;36795;45.028;38.968;2023-06-22T07:19:28;28.60;54.40
49385;DHT22;36795;45.028;38.968;2023-06-22T07:22:15;28.70;54.20
49385;DHT22;36795;45.028;38.968;2023-06-22T07:25:00;28.60;54.20
49385;DHT22;36795;45.028;38.968;2023-06-22T07:28:03;28.60;54.40
49385;DHT22;36795;45.028;38.968;2023-06-22T07:30:49;28.70;54.10
49385;DHT22;36795;45.028;38.968;2023-06-22T07:33:37;28.90;53.80
49385;DHT22;36795;45.028;38.968;2023-06-22T07:36:23;28.90;53.50
49385;DHT22;36795;45.028;38.968;2023-06-22T07:39:09;28.90;53.10
49385;DHT22;36795;45.028;38.968;2023-06-22T07:41:55;28.90;53.10
49385;DHT22;36795;45.028;38.968;2023-06-22T07:44:41;28.90;52.90
49385;DHT22;36795;45.028;38.968;2023-06-22T07:47:30;28.90;52.30
49385;DHT22;36795;45.028;38.968;2023-06-22T07:50:19;29.10;52.20
49385;DHT22;36795;45.028;38.968;2023-06-22T07:53:06;29.20;51.40
49385;DHT22;36795;45.028;38.968;2023-06-22T07:55:52;29.20;50.80
49385;DHT22;36795;45.028;38.968;2023-06-22T07:58:38;29.20;50.60
49385;DHT22;36795;45.028;38.968;2023-06-22T08:01:24;29.40;50.20
49385;DHT22;36795;45.028;38.968;2023-06-22T08:04:11;29.40;49.40
49385;DHT22;36795;45.028;38.968;2023-06-22T08:06:57;29.30;49.00
49385;DHT22;36795;45.028;38.968;2023-06-22T08:09:48;29.20;49.10
49385;DHT22;36795;45.028;38.968;2023-06-22T08:12:34;29.20;49.20
49385;DHT22;36795;45.028;38.968;2023-06-22T08:15:20;29.40;48.40
49385;DHT22;36795;45.028;38.968;2023-06-22T08:18:07;29.40;48.40
49385;DHT22;36795;45.028;38.968;2023-06-22T08:20:53;29.50;47.50
49385;DHT22;36795;45.028;38.968;2023-06-22T08:23:39;29.50;46.60
49385;DHT22;36795;45.028;38.968;2023-06-22T08:26:26;29.50;47.00
49385;DHT22;36795;45.028;38.968;2023-06-22T08:29:12;29.60;47.30
49385;DHT22;36795;45.028;38.968;2023-06-22T08:31:58;29.70;46.90
49385;DHT22;36795;45.028;38.968;2023-06-22T08:34:44;29.80;46.40
49385;DHT22;36795;45.028;38.968;2023-06-22T08:37:30;29.70;45.20
49385;DHT22;36795;45.028;38.968;2023-06-22T08:40:16;29.80;45.10
49385;DHT22;36795;45.028;38.968;2023-06-22T08:43:03;29.90;44.80
49385;DHT22;36795;45.028;38.968;2023-06-22T08:45:48;29.90;45.00
49385;DHT22;36795;45.028;38.968;2023-06-22T08:48:35;30.00;44.90
49385;DHT22;36795;45.028;38.968;2023-06-22T08:51:20;30.20;44.50
49385;DHT22;36795;45.028;38.968;2023-06-22T08:54:07;30.30;44.50
49385;DHT22;36795;45.028;38.968;2023-06-22T08:56:53;30.60;44.60
49385;DHT22;36795;45.028;38.968;2023-06-22T08:59:39;30.90;44.40
49385;DHT22;36795;45.028;38.968;2023-06-22T09:02:26;30.90;43.50
49385;DHT22;36795;45.028;38.968;2023-06-22T09:05:17;30.90;43.50
49385;DHT22;36795;45.028;38.968;2023-06-22T09:08:03;30.80;43.30
49385;DHT22;36795;45.028;38.968;2023-06-22T09:10:50;30.60;43.20
49385;DHT22;36795;45.028;38.968;2023-06-22T09:13:36;30.60;43.30
49385;DHT22;36795;45.028;38.968;2023-06-22T09:16:23;30.70;43.40
49385;DHT22;36795;45.028;38.968;2023-06-22T09:19:09;30.80;42.70
49385;DHT22;36795;45.028;38.968;2023-06-22T09:21:56;30.80;42.40
49385;DHT22;36795;45.028;38.968;2023-06-22T09:24:42;30.80;42.70
49385;DHT22;36795;45.028;38.968;2023-06-22T09:27:28;31.00;42.50
49385;DHT22;36795;45.028;38.968;2023-06-22T09:30:14;31.20;41.70
49385;DHT22;36795;45.028;38.968;2023-06-22T09:33:00;31.30;41.70
49385;DHT22;36795;45.028;38.968;2023-06-22T09:35:46;31.30;41.70
49385;DHT22;36795;45.028;38.968;2023-06-22T09:38:39;31.10;41.50
49385;DHT22;36795;45.028;38.968;2023-06-22T09:41:31;31.00;41.80
49385;DHT22;36795;45.028;38.968;2023-06-22T09:44:17;30.90;41.70
49385;DHT22;36795;45.028;38.968;2023-06-22T09:47:03;30.80;41.90
49385;DHT22;36795;45.028;38.968;2023-06-22T09:49:50;30.90;41.90
49385;DHT22;36795;45.028;38.968;2023-06-22T09:52:35;31.00;41.90
49385;DHT22;36795;45.028;38.968;2023-06-22T09:55:22;31.10;41.50
49385;DHT22;36795;45.028;38.968;2023-06-22T09:58:08;31.20;41.00
49385;DHT22;36795;45.028;38.968;2023-06-22T10:00:56;31.20;40.90
49385;DHT22;36795;45.028;38.968;2023-06-22T10:03:42;31.30;40.60
49385;DHT22;36795;45.028;38.968;2023-06-22T10:06:28;31.30;40.30
49385;DHT22;36795;45.028;38.968;2023-06-22T10:09:15;31.40;39.80
49385;DHT22;36795;45.028;38.968;2023-06-22T10:12:00;31.40;39.80
49385;DHT22;36795;45.028;38.968;2023-06-22T10:14:47;31.20;39.70
49385;DHT22;36795;45.028;38.968;2023-06-22T10:17:33;31.10;40.20
49385;DHT22;36795;45.028;38.968;2023-06-22T10:20:20;31.20;40.30
49385;DHT22;36795;45.028;38.968;2023-06-22T10:23:07;31.20;40.50
49385;DHT22;36795;45.028;38.968;2023-06-22T10:25:54;31.40;40.50
49385;DHT22;36795;45.028;38.968;2023-06-22T10:28:39;31.60;40.20
49385;DHT22;36795;45.028;38.968;2023-06-22T10:31:26;31.60;39.80
49385;DHT22;36795;45.028;38.968;2023-06-22T10:34:12;31.60;39.90
49385;DHT22;36795;45.028;38.968;2023-06-22T10:36:58;31.70;39.60
49385;DHT22;36795;45.028;38.968;2023-06-22T10:39:44;32.00;39.20
49385;DHT22;36795;45.028;38.968;2023-06-22T10:42:31;32.30;38.40
49385;DHT22;36795;45.028;38.968;2023-06-22T10:45:17;32.70;38.00
49385;DHT22;36795;45.028;38.968;2023-06-22T10:48:03;32.80;37.40
49385;DHT22;36795;45.028;38.968;2023-06-22T10:50:49;32.60;38.00
49385;DHT22;36795;45.028;38.968;2023-06-22T10:53:36;32.60;37.60
49385;DHT22;36795;45.028;38.968;2023-06-22T10:56:22;32.30;37.80
49385;DHT22;36795;45.028;38.968;2023-06-22T10:59:08;32.00;38.10
49385;DHT22;36795;45.028;38.968;2023-06-22T11:01:54;31.90;38.30
49385;DHT22;36795;45.028;38.968;2023-06-22T11:04:41;31.70;38.10
49385;DHT22;36795;45.028;38.968;2023-06-22T11:07:27;31.50;38.10
49385;DHT22;36795;45.028;38.968;2023-06-22T11:10:14;31.40;38.00
49385;DHT22;36795;45.028;38.968;2023-06-22T11:13:01;31.40;38.10
49385;DHT22;36795;45.028;38.968;2023-06-22T11:15:48;31.50;38.20
49385;DHT22;36795;45.028;38.968;2023-06-22T11:18:34;31.50;37.90
49385;DHT22;36795;45.028;38.968;2023-06-22T11:21:20;31.60;38.00
49385;DHT22;36795;45.028;38.968;2023-06-22T11:24:06;31.50;38.30
49385;DHT22;36795;45.028;38.968;2023-06-22T11:26:53;31.50;38.50
49385;DHT22;36795;45.028;38.968;2023-06-22T11:29:42;31.40;38.40
49385;DHT22;36795;45.028;38.968;2023-06-22T11:32:33;31.50;38.70
49385;DHT22;36795;45.028;38.968;2023-06-22T11:35:19;31.40;38.10
49385;DHT22;36795;45.028;38.968;2023-06-22T11:38:05;31.30;38.10
49385;DHT22;36795;45.028;38.968;2023-06-22T11:40:51;31.20;38.30
49385;DHT22;36795;45.028;38.968;2023-06-22T11:43:38;31.20;38.40
49385;DHT22;36795;45.028;38.968;2023-06-22T11:46:24;31.10;38.40
49385;DHT22;36795;45.028;38.968;2023-06-22T11:49:10;31.00;38.80
49385;DHT22;36795;45.028;38.968;2023-06-22T11:51:56;31.10;38.50
49385;DHT22;36795;45.028;38.968;2023-06-22T11:54:43;31.30;38.60
49385;DHT22;36795;45.028;38.968;2023-06-22T11:57:29;31.30;37.80
49385;DHT22;36795;45.028;38.968;2023-06-22T12:00:15;31.20;37.50
49385;DHT22;36795;45.028;38.968;2023-06-22T12:03:04;31.20;37.40
49385;DHT22;36795;45.028;38.968;2023-06-22T12:05:51;31.40;37.20
49385;DHT22;36795;45.028;38.968;2023-06-22T12:08:50;31.80;37.30
49385;DHT22;36795;45.028;38.968;2023-06-22T12:11:36;32.00;37.20
49385;DHT22;36795;45.028;38.968;2023-06-22T12:14:22;32.50;37.20
49385;DHT22;36795;45.028;38.968;2023-06-22T12:17:08;32.90;36.50
49385;DHT22;36795;45.028;38.968;2023-06-22T12:19:55;33.50;35.60
49385;DHT22;36795;45.028;38.968;2023-06-22T12:22:41;33.80;35.20
49385;DHT22;36795;45.028;38.968;2023-06-22T12:25:28;33.90;35.30
49385;DHT22;36795;45.028;38.968;2023-06-22T12:28:13;34.00;34.50
49385;DHT22;36795;45.028;38.968;2023-06-22T12:31:02;34.00;33.90
49385;DHT22;36795;45.028;38.968;2023-06-22T12:33:48;34.00;33.80
49385;DHT22;36795;45.028;38.968;2023-06-22T12:36:35;34.60;33.80
49385;DHT22;36795;45.028;38.968;2023-06-22T12:39:20;35.90;32.90
49385;DHT22;36795;45.028;38.968;2023-06-22T12:42:07;37.10;31.30
49385;DHT22;36795;45.028;38.968;2023-06-22T12:44:57;37.70;30.60
49385;DHT22;36795;45.028;38.968;2023-06-22T12:47:43;38.10;30.00
49385;DHT22;36795;45.028;38.968;2023-06-22T12:50:29;37.90;29.70
49385;DHT22;36795;45.028;38.968;2023-06-22T12:53:16;37.30;29.90
49385;DHT22;36795;45.028;38.968;2023-06-22T12:56:01;36.50;30.50
49385;DHT22;36795;45.028;38.968;2023-06-22T12:58:48;36.30;31.20
49385;DHT22;36795;45.028;38.968;2023-06-22T13:01:34;36.50;31.30
49385;DHT22;36795;45.028;38.968;2023-06-22T13:04:20;36.90;31.20
49385;DHT22;36795;45.028;38.968;2023-06-22T13:07:06;38.10;30.10
49385;DHT22;36795;45.028;38.968;2023-06-22T13:09:55;39.00;29.50
49385;DHT22;36795;45.028;38.968;2023-06-22T13:12:41;39.80;29.30
49385;DHT22;36795;45.028;38.968;2023-06-22T13:15:28;40.10;29.10
49385;DHT22;36795;45.028;38.968;2023-06-22T13:18:14;39.70;29.80
49385;DHT22;36795;45.028;38.968;2023-06-22T13:21:04;39.30;29.50
49385;DHT22;36795;45.028;38.968;2023-06-22T13:23:49;39.20;29.30
49385;DHT22;36795;45.028;38.968;2023-06-22T13:26:36;39.30;29.00
49385;DHT22;36795;45.028;38.968;2023-06-22T13:29:21;39.70;28.80
49385;DHT22;36795;45.028;38.968;2023-06-22T13:32:08;40.40;28.40
49385;DHT22;36795;45.028;38.968;2023-06-22T13:34:55;40.60;28.40
49385;DHT22;36795;45.028;38.968;2023-06-22T13:37:41;40.80;28.30
49385;DHT22;36795;45.028;38.968;2023-06-22T13:40:27;40.50;28.20
49385;DHT22;36795;45.028;38.968;2023-06-22T13:43:17;40.10;28.20
49385;DHT22;36795;45.028;38.968;2023-06-22T13:46:05;39.50;28.20
49385;DHT22;36795;45.028;38.968;2023-06-22T13:48:56;38.70;28.40
49385;DHT22;36795;45.028;38.968;2023-06-22T13:51:44;38.40;28.80
49385;DHT22;36795;45.028;38.968;2023-06-22T13:54:47;37.80;28.70
49385;DHT22;36795;45.028;38.968;2023-06-22T13:57:34;37.20;28.70
49385;DHT22;36795;45.028;38.968;2023-06-22T14:00:21;36.00;29.40
49385;DHT22;36795;45.028;38.968;2023-06-22T14:03:08;35.20;29.80
49385;DHT22;36795;45.028;38.968;2023-06-22T14:05:54;34.60;30.20
49385;DHT22;36795;45.028;38.968;2023-06-22T14:08:41;34.00;30.90
49385;DHT22;36795;45.028;38.968;2023-06-22T14:11:27;33.50;31.60
49385;DHT22;36795;45.028;38.968;2023-06-22T14:14:15;33.10;32.10
49385;DHT22;36795;45.028;38.968;2023-06-22T14:17:05;32.80;32.10
49385;DHT22;36795;45.028;38.968;2023-06-22T14:19:52;32.40;32.20
49385;DHT22;36795;45.028;38.968;2023-06-22T14:22:42;32.20;32.40
49385;DHT22;36795;45.028;38.968;2023-06-22T14:25:34;31.80;32.50
49385;DHT22;36795;45.028;38.968;2023-06-22T14:28:20;31.40;32.80
49385;DHT22;36795;45.028;38.968;2023-06-22T14:31:07;31.20;33.10
49385;DHT22;36795;45.028;38.968;2023-06-22T14:33:54;31.00;32.90
49385;DHT22;36795;45.028;38.968;2023-06-22T14:36:43;30.80;33.10
49385;DHT22;36795;45.028;38.968;2023-06-22T14:39:29;30.80;32.70
49385;DHT22;36795;45.028;38.968;2023-06-22T14:42:15;30.60;32.40
49385;DHT22;36795;45.028;38.968;2023-06-22T14:45:01;30.40;32.50
49385;DHT22;36795;45.028;38.968;2023-06-22T14:47:49;30.30;33.10
49385;DHT22;36795;45.028;38.968;2023-06-22T14:50:35;30.20;33.70
49385;DHT22;36795;45.028;38.968;2023-06-22T14:53:22;30.20;34.10
49385;DHT22;36795;45.028;38.968;2023-06-22T14:56:09;30.10;34.20
49385;DHT22;36795;45.028;38.968;2023-06-22T14:58:55;30.10;34.00
49385;DHT22;36795;45.028;38.968;2023-06-22T15:01:44;30.20;33.70
49385;DHT22;36795;45.028;38.968;2023-06-22T15:04:38;30.10;33.80
49385;DHT22;36795;45.028;38.968;2023-06-22T15:07:24;30.00;33.80
49385;DHT22;36795;45.028;38.968;2023-06-22T15:10:10;29.80;33.80
49385;DHT22;36795;45.028;38.968;2023-06-22T15:12:56;29.70;33.90
49385;DHT22;36795;45.028;38.968;2023-06-22T15:15:44;29.60;34.00
49385;DHT22;36795;45.028;38.968;2023-06-22T15:18:30;29.60;33.90
49385;DHT22;36795;45.028;38.968;2023-06-22T15:21:16;29.40;34.20
49385;DHT22;36795;45.028;38.968;2023-06-22T15:24:03;29.20;34.40
49385;DHT22;36795;45.028;38.968;2023-06-22T15:26:49;29.00;34.30
49385;DHT22;36795;45.028;38.968;2023-06-22T15:29:36;28.80;34.70
49385;DHT22;36795;45.028;38.968;2023-06-22T15:32:23;28.80;35.10
49385;DHT22;36795;45.028;38.968;2023-06-22T15:35:08;28.70;35.00
49385;DHT22;36795;45.028;38.968;2023-06-22T15:37:55;28.60;35.00
49385;DHT22;36795;45.028;38.968;2023-06-22T15:40:41;28.50;35.00
49385;DHT22;36795;45.028;38.968;2023-06-22T15:43:27;28.50;35.00
49385;DHT22;36795;45.028;38.968;2023-06-22T15:46:13;28.40;34.90
49385;DHT22;36795;45.028;38.968;2023-06-22T15:49:02;28.40;35.00
49385;DHT22;36795;45.028;38.968;2023-06-22T15:51:47;28.30;35.30
49385;DHT22;36795;45.028;38.968;2023-06-22T15:54:34;28.20;35.30
49385;DHT22;36795;45.028;38.968;2023-06-22T15:57:19;28.20;35.40
49385;DHT22;36795;45.028;38.968;2023-06-22T16:00:06;28.10;35.50
49385;DHT22;36795;45.028;38.968;2023-06-22T16:02:52;28.10;35.80
49385;DHT22;36795;45.028;38.968;2023-06-22T16:05:39;27.90;35.80
49385;DHT22;36795;45.028;38.968;2023-06-22T16:08:24;27.90;36.10
49385;DHT22;36795;45.028;38.968;2023-06-22T16:11:16;27.80;36.30
49385;DHT22;36795;45.028;38.968;2023-06-22T16:14:02;27.70;36.40
49385;DHT22;36795;45.028;38.968;2023-06-22T16:16:48;27.70;36.70
49385;DHT22;36795;45.028;38.968;2023-06-22T16:19:34;27.60;36.80
49385;DHT22;36795;45.028;38.968;2023-06-22T16:22:21;27.70;37.00
49385;DHT22;36795;45.028;38.968;2023-06-22T16:25:07;27.60;37.10
49385;DHT22;36795;45.028;38.968;2023-06-22T16:27:54;27.50;37.40
49385;DHT22;36795;45.028;38.968;2023-06-22T16:30:40;27.40;37.80
49385;DHT22;36795;45.028;38.968;2023-06-22T16:33:30;27.40;37.90
49385;DHT22;36795;45.028;38.968;2023-06-22T16:36:15;27.40;38.40
49385;DHT22;36795;45.028;38.968;2023-06-22T16:39:02;27.30;38.70
49385;DHT22;36795;45.028;38.968;2023-06-22T16:41:49;27.20;38.90
49385;DHT22;36795;45.028;38.968;2023-06-22T16:44:35;27.20;39.30
49385;DHT22;36795;45.028;38.968;2023-06-22T16:47:22;27.10;39.30
49385;DHT22;36795;45.028;38.968;2023-06-22T16:50:09;27.00;39.20
49385;DHT22;36795;45.028;38.968;2023-06-22T16:52:55;26.90;39.50
49385;DHT22;36795;45.028;38.968;2023-06-22T16:55:42;26.80;40.00
49385;DHT22;36795;45.028;38.968;2023-06-22T16:58:29;26.80;40.30
49385;DHT22;36795;45.028;38.968;2023-06-22T17:01:16;26.80;40.40
49385;DHT22;36795;45.028;38.968;2023-06-22T17:04:10;26.80;40.80
49385;DHT22;36795;45.028;38.968;2023-06-22T17:07:04;26.80;41.00
49385;DHT22;36795;45.028;38.968;2023-06-22T17:09:55;26.70;40.70
49385;DHT22;36795;45.028;38.968;2023-06-22T17:12:43;26.70;40.40
49385;DHT22;36795;45.028;38.968;2023-06-22T17:15:31;26.60;40.20
49385;DHT22;36795;45.028;38.968;2023-06-22T17:18:18;26.60;40.10
49385;DHT22;36795;45.028;38.968;2023-06-22T17:21:05;26.50;40.10
49385;DHT22;36795;45.028;38.968;2023-06-22T17:23:51;26.40;40.20
49385;DHT22;36795;45.028;38.968;2023-06-22T17:26:40;26.40;40.50
49385;DHT22;36795;45.028;38.968;2023-06-22T17:29:30;26.30;40.80